sensor_id;sensor_type;location;lat;lon;timestamp;temperature;humidity
22948;DHT22;11640;52.520;13.456;2023-05-07T00:00:26;9.20;99.90
22948;DHT22;11640;52.520;13.456;2023-05-07T00:05:28;9.10;99.90
22948;DHT22;11640;52.520;13.456;2023-05-07T00:10:30;9.10;99.90
22948;DHT22;11640;52.520;13.456;2023-05-07T00:15:31;9.10;99.90
22948;DHT22;11640;52.520;13.456;2023-05-07T00:20:33;9.10;99.90
22948;DHT22;11640;52.520;13.456;2023-05-07T00:25:37;9.10;99.90
22948;DHT22;11640;52.520;13.456;2023-05-07T00:30:38;9.20;99.90
22948;DHT22;11640;52.520;13.456;2023-05-07T00:35:42;9.20;99.90
22948;DHT22;11640;52.520;13.456;2023-05-07T00:40:43;9.10;99.90
22948;DHT22;11640;52.520;13.456;2023-05-07T00:45:45;9.00;99.90
22948;DHT22;11640;52.520;13.456;2023-05-07T00:50:47;8.90;99.90
22948;DHT22;11640;52.520;13.456;2023-05-07T00:55:49;9.00;99.90
22948;DHT22;11640;52.520;13.456;2023-05-07T01:00:51;8.90;99.90
22948;DHT22;11640;52.520;13.456;2023-05-07T01:05:54;9.00;99.90
22948;DHT22;11640;52.520;13.456;2023-05-07T01:10:58;9.00;99.90
22948;DHT22;11640;52.520;13.456;2023-05-07T01:16:01;9.00;99.90
22948;DHT22;11640;52.520;13.456;2023-05-07T01:21:05;9.00;99.90
22948;DHT22;11640;52.520;13.456;2023-05-07T01:26:07;9.10;99.90
22948;DHT22;11640;52.520;13.456;2023-05-07T01:31:10;9.10;99.90
22948;DHT22;11640;52.520;13.456;2023-05-07T01:36:14;9.10;99.90
22948;DHT22;11640;52.520;13.456;2023-05-07T01:41:16;9.10;99.90
22948;DHT22;11640;52.520;13.456;2023-05-07T01:46:18;9.00;99.90
22948;DHT22;11640;52.520;13.456;2023-05-07T01:51:21;9.10;99.90
22948;DHT22;11640;52.520;13.456;2023-05-07T01:56:24;9.10;99.90
22948;DHT22;11640;52.520;13.456;2023-05-07T02:01:26;9.20;99.90
22948;DHT22;11640;52.520;13.456;2023-05-07T02:06:28;9.20;99.90
22948;DHT22;11640;52.520;13.456;2023-05-07T02:11:36;9.20;99.90
22948;DHT22;11640;52.520;13.456;2023-05-07T02:16:37;9.20;99.90
22948;DHT22;11640;52.520;13.456;2023-05-07T02:21:39;9.10;99.90
22948;DHT22;11640;52.520;13.456;2023-05-07T02:26:41;9.10;99.90
22948;DHT22;11640;52.520;13.456;2023-05-07T02:31:43;9.20;99.90
22948;DHT22;11640;52.520;13.456;2023-05-07T02:36:45;9.30;99.90
22948;DHT22;11640;52.520;13.456;2023-05-07T02:41:50;9.20;99.90
22948;DHT22;11640;52.520;13.456;2023-05-07T02:46:51;9.20;99.90
22948;DHT22;11640;52.520;13.456;2023-05-07T02:51:54;9.20;99.90
22948;DHT22;11640;52.520;13.456;2023-05-07T02:56:59;9.10;99.90
22948;DHT22;11640;52.520;13.456;2023-05-07T03:02:02;9.10;99.90
22948;DHT22;11640;52.520;13.456;2023-05-07T03:07:04;9.20;99.90
22948;DHT22;11640;52.520;13.456;2023-05-07T03:12:06;9.10;99.90
22948;DHT22;11640;52.520;13.456;2023-05-07T03:17:08;9.10;99.90
22948;DHT22;11640;52.520;13.456;2023-05-07T03:22:10;9.20;99.90
22948;DHT22;11640;52.520;13.456;2023-05-07T03:27:12;9.20;99.90
22948;DHT22;11640;52.520;13.456;2023-05-07T03:32:14;9.20;99.90
22948;DHT22;11640;52.520;13.456;2023-05-07T03:37:16;9.00;99.90
22948;DHT22;11640;52.520;13.456;2023-05-07T03:42:18;9.00;99.90
22948;DHT22;11640;52.520;13.456;2023-05-07T03:47:22;8.90;99.90
22948;DHT22;11640;52.520;13.456;2023-05-07T03:52:25;9.00;99.90
22948;DHT22;11640;52.520;13.456;2023-05-07T03:57:30;9.00;99.90
22948;DHT22;11640;52.520;13.456;2023-05-07T04:02:34;8.90;99.90
22948;DHT22;11640;52.520;13.456;2023-05-07T04:07:38;8.90;99.90
22948;DHT22;11640;52.520;13.456;2023-05-07T04:12:40;8.90;99.90
22948;DHT22;11640;52.520;13.456;2023-05-07T04:17:43;9.00;99.90
22948;DHT22;11640;52.520;13.456;2023-05-07T04:22:47;8.90;99.90
22948;DHT22;11640;52.520;13.456;2023-05-07T04:27:48;8.90;99.90
22948;DHT22;11640;52.520;13.456;2023-05-07T04:32:51;8.90;99.90
22948;DHT22;11640;52.520;13.456;2023-05-07T04:37:55;9.00;99.90
22948;DHT22;11640;52.520;13.456;2023-05-07T04:42:57;9.10;99.90
22948;DHT22;11640;52.520;13.456;2023-05-07T04:47:59;9.00;99.90
22948;DHT22;11640;52.520;13.456;2023-05-07T04:53:02;9.00;99.90
22948;DHT22;11640;52.520;13.456;2023-05-07T04:58:04;9.10;99.90
22948;DHT22;11640;52.520;13.456;2023-05-07T05:03:09;9.10;99.90
22948;DHT22;11640;52.520;13.456;2023-05-07T05:08:13;9.20;99.90
22948;DHT22;11640;52.520;13.456;2023-05-07T05:13:16;9.20;99.90
22948;DHT22;11640;52.520;13.456;2023-05-07T05:18:19;9.40;99.90
22948;DHT22;11640;52.520;13.456;2023-05-07T05:23:22;9.50;99.90
22948;DHT22;11640;52.520;13.456;2023-05-07T05:28:24;9.40;99.90
22948;DHT22;11640;52.520;13.456;2023-05-07T05:33:26;9.60;99.90
22948;DHT22;11640;52.520;13.456;2023-05-07T05:38:31;9.50;99.90
22948;DHT22;11640;52.520;13.456;2023-05-07T05:43:33;9.70;99.90
22948;DHT22;11640;52.520;13.456;2023-05-07T05:48:35;9.90;99.90
22948;DHT22;11640;52.520;13.456;2023-05-07T05:53:38;10.10;99.90
22948;DHT22;11640;52.520;13.456;2023-05-07T05:58:41;10.20;99.90
22948;DHT22;11640;52.520;13.456;2023-05-07T06:03:43;10.30;99.90
22948;DHT22;11640;52.520;13.456;2023-05-07T06:08:48;10.00;99.90
22948;DHT22;11640;52.520;13.456;2023-05-07T06:13:55;10.10;99.90
22948;DHT22;11640;52.520;13.456;2023-05-07T06:18:57;10.50;99.90
22948;DHT22;11640;52.520;13.456;2023-05-07T06:23:59;10.50;99.90
22948;DHT22;11640;52.520;13.456;2023-05-07T06:29:01;10.50;99.90
22948;DHT22;11640;52.520;13.456;2023-05-07T06:34:04;10.90;99.90
22948;DHT22;11640;52.520;13.456;2023-05-07T06:39:10;11.10;99.90
22948;DHT22;11640;52.520;13.456;2023-05-07T06:44:12;11.20;99.90
22948;DHT22;11640;52.520;13.456;2023-05-07T06:49:18;11.40;99.90
22948;DHT22;11640;52.520;13.456;2023-05-07T06:54:23;11.50;99.90
22948;DHT22;11640;52.520;13.456;2023-05-07T06:59:26;11.50;99.90
22948;DHT22;11640;52.520;13.456;2023-05-07T07:04:28;11.50;99.90
22948;DHT22;11640;52.520;13.456;2023-05-07T07:09:36;11.40;99.90
22948;DHT22;11640;52.520;13.456;2023-05-07T07:14:40;11.00;99.90
22948;DHT22;11640;52.520;13.456;2023-05-07T07:19:42;11.10;99.90
22948;DHT22;11640;52.520;13.456;2023-05-07T07:24:44;11.10;99.90
22948;DHT22;11640;52.520;13.456;2023-05-07T07:29:49;11.30;99.90
22948;DHT22;11640;52.520;13.456;2023-05-07T07:34:51;11.60;99.90
22948;DHT22;11640;52.520;13.456;2023-05-07T07:39:53;12.00;99.90
22948;DHT22;11640;52.520;13.456;2023-05-07T07:44:56;11.60;99.90
22948;DHT22;11640;52.520;13.456;2023-05-07T07:50:01;11.30;99.90
22948;DHT22;11640;52.520;13.456;2023-05-07T07:55:03;11.30;99.90
22948;DHT22;11640;52.520;13.456;2023-05-07T08:00:07;11.80;99.90
22948;DHT22;11640;52.520;13.456;2023-05-07T08:05:29;12.00;99.90
22948;DHT22;11640;52.520;13.456;2023-05-07T08:10:32;12.10;99.90
22948;DHT22;11640;52.520;13.456;2023-05-07T08:15:41;12.10;99.90
22948;DHT22;11640;52.520;13.456;2023-05-07T08:20:43;12.70;99.90
22948;DHT22;11640;52.520;13.456;2023-05-07T08:25:50;13.10;99.90
22948;DHT22;11640;52.520;13.456;2023-05-07T08:30:53;12.90;99.90
22948;DHT22;11640;52.520;13.456;2023-05-07T08:35:55;12.80;99.90
22948;DHT22;11640;52.520;13.456;2023-05-07T08:40:57;13.20;99.90
22948;DHT22;11640;52.520;13.456;2023-05-07T08:46:01;13.80;99.90
22948;DHT22;11640;52.520;13.456;2023-05-07T08:51:11;13.90;99.90
22948;DHT22;11640;52.520;13.456;2023-05-07T08:56:15;13.90;99.90
22948;DHT22;11640;52.520;13.456;2023-05-07T09:01:17;13.50;99.90
22948;DHT22;11640;52.520;13.456;2023-05-07T09:06:24;13.70;99.90
22948;DHT22;11640;52.520;13.456;2023-05-07T09:11:26;14.00;99.90
22948;DHT22;11640;52.520;13.456;2023-05-07T09:16:31;14.30;99.90
22948;DHT22;11640;52.520;13.456;2023-05-07T09:21:34;14.40;99.90
22948;DHT22;11640;52.520;13.456;2023-05-07T09:26:40;14.60;99.90
22948;DHT22;11640;52.520;13.456;2023-05-07T09:31:43;15.00;99.90
22948;DHT22;11640;52.520;13.456;2023-05-07T09:36:48;14.00;99.90
22948;DHT22;11640;52.520;13.456;2023-05-07T09:41:51;13.50;99.90
22948;DHT22;11640;52.520;13.456;2023-05-07T09:47:06;14.20;99.90
22948;DHT22;11640;52.520;13.456;2023-05-07T09:52:15;14.30;99.90
22948;DHT22;11640;52.520;13.456;2023-05-07T09:57:25;15.10;99.90
22948;DHT22;11640;52.520;13.456;2023-05-07T10:02:35;14.80;99.90
22948;DHT22;11640;52.520;13.456;2023-05-07T10:07:38;14.30;99.90
22948;DHT22;11640;52.520;13.456;2023-05-07T10:12:43;14.50;99.90
22948;DHT22;11640;52.520;13.456;2023-05-07T10:17:58;14.50;99.90
22948;DHT22;11640;52.520;13.456;2023-05-07T10:23:04;14.90;99.90
22948;DHT22;11640;52.520;13.456;2023-05-07T10:28:15;15.50;99.90
22948;DHT22;11640;52.520;13.456;2023-05-07T10:33:23;15.20;99.90
22948;DHT22;11640;52.520;13.456;2023-05-07T10:38:27;15.00;99.90
22948;DHT22;11640;52.520;13.456;2023-05-07T10:43:43;15.50;99.90
22948;DHT22;11640;52.520;13.456;2023-05-07T11:04:32;15.60;99.90
22948;DHT22;11640;52.520;13.456;2023-05-07T11:09:56;16.20;99.90
22948;DHT22;11640;52.520;13.456;2023-05-07T11:15:33;16.20;99.90
22948;DHT22;11640;52.520;13.456;2023-05-07T11:26:12;15.70;99.90
22948;DHT22;11640;52.520;13.456;2023-05-07T11:31:21;15.80;99.90
22948;DHT22;11640;52.520;13.456;2023-05-07T11:36:24;16.10;99.90
22948;DHT22;11640;52.520;13.456;2023-05-07T11:41:36;15.60;99.90
22948;DHT22;11640;52.520;13.456;2023-05-07T11:46:43;15.70;99.90
22948;DHT22;11640;52.520;13.456;2023-05-07T11:51:44;16.40;99.90
22948;DHT22;11640;52.520;13.456;2023-05-07T11:56:49;16.20;99.90
22948;DHT22;11640;52.520;13.456;2023-05-07T12:01:50;16.30;99.90
22948;DHT22;11640;52.520;13.456;2023-05-07T12:06:55;16.70;99.90
22948;DHT22;11640;52.520;13.456;2023-05-07T12:12:03;16.50;99.90
22948;DHT22;11640;52.520;13.456;2023-05-07T12:17:06;16.30;99.90
22948;DHT22;11640;52.520;13.456;2023-05-07T12:22:09;16.30;99.90
22948;DHT22;11640;52.520;13.456;2023-05-07T12:27:11;16.50;99.90
22948;DHT22;11640;52.520;13.456;2023-05-07T12:32:14;17.10;99.90
22948;DHT22;11640;52.520;13.456;2023-05-07T12:37:23;17.80;99.90
22948;DHT22;11640;52.520;13.456;2023-05-07T12:42:24;17.90;99.90
22948;DHT22;11640;52.520;13.456;2023-05-07T12:47:30;17.40;99.90
22948;DHT22;11640;52.520;13.456;2023-05-07T12:52:33;17.70;99.90
22948;DHT22;11640;52.520;13.456;2023-05-07T12:57:41;17.50;99.90
22948;DHT22;11640;52.520;13.456;2023-05-07T13:02:44;17.90;99.90
22948;DHT22;11640;52.520;13.456;2023-05-07T13:07:56;17.80;99.90
22948;DHT22;11640;52.520;13.456;2023-05-07T13:12:58;18.30;99.90
22948;DHT22;11640;52.520;13.456;2023-05-07T13:18:00;18.80;99.90
22948;DHT22;11640;52.520;13.456;2023-05-07T13:23:02;18.70;99.90
22948;DHT22;11640;52.520;13.456;2023-05-07T13:28:06;17.80;99.90
22948;DHT22;11640;52.520;13.456;2023-05-07T13:33:12;18.20;99.90
22948;DHT22;11640;52.520;13.456;2023-05-07T13:38:14;18.10;99.90
22948;DHT22;11640;52.520;13.456;2023-05-07T13:43:17;17.70;99.90
22948;DHT22;11640;52.520;13.456;2023-05-07T13:48:20;18.40;99.90
22948;DHT22;11640;52.520;13.456;2023-05-07T13:53:21;19.70;99.90
22948;DHT22;11640;52.520;13.456;2023-05-07T13:58:23;18.80;99.90
22948;DHT22;11640;52.520;13.456;2023-05-07T14:03:25;18.40;99.90
22948;DHT22;11640;52.520;13.456;2023-05-07T14:08:27;18.10;99.90
22948;DHT22;11640;52.520;13.456;2023-05-07T14:13:32;18.80;99.90
22948;DHT22;11640;52.520;13.456;2023-05-07T14:18:36;20.50;99.90
22948;DHT22;11640;52.520;13.456;2023-05-07T14:23:38;19.70;99.90
22948;DHT22;11640;52.520;13.456;2023-05-07T14:28:40;20.00;99.90
22948;DHT22;11640;52.520;13.456;2023-05-07T14:33:47;19.80;99.90
22948;DHT22;11640;52.520;13.456;2023-05-07T14:38:51;21.30;96.60
22948;DHT22;11640;52.520;13.456;2023-05-07T14:43:54;21.60;94.90
22948;DHT22;11640;52.520;13.456;2023-05-07T14:48:56;23.10;90.90
22948;DHT22;11640;52.520;13.456;2023-05-07T14:53:58;23.90;83.60
22948;DHT22;11640;52.520;13.456;2023-05-07T14:59:02;22.70;87.30
22948;DHT22;11640;52.520;13.456;2023-05-07T15:04:09;21.30;92.70
22948;DHT22;11640;52.520;13.456;2023-05-07T15:09:11;22.30;91.20
22948;DHT22;11640;52.520;13.456;2023-05-07T15:14:13;22.00;90.90
22948;DHT22;11640;52.520;13.456;2023-05-07T15:19:15;21.30;92.40
22948;DHT22;11640;52.520;13.456;2023-05-07T15:24:18;20.60;92.70
22948;DHT22;11640;52.520;13.456;2023-05-07T15:29:20;21.40;92.70
22948;DHT22;11640;52.520;13.456;2023-05-07T15:34:22;21.10;92.30
22948;DHT22;11640;52.520;13.456;2023-05-07T15:39:25;21.60;91.10
22948;DHT22;11640;52.520;13.456;2023-05-07T15:44:27;19.60;94.10
22948;DHT22;11640;52.520;13.456;2023-05-07T15:49:30;19.00;93.80
22948;DHT22;11640;52.520;13.456;2023-05-07T15:54:31;19.00;93.30
22948;DHT22;11640;52.520;13.456;2023-05-07T15:59:33;18.80;94.20
22948;DHT22;11640;52.520;13.456;2023-05-07T16:04:36;18.90;94.40
22948;DHT22;11640;52.520;13.456;2023-05-07T16:09:38;18.60;95.10
22948;DHT22;11640;52.520;13.456;2023-05-07T16:14:40;18.80;96.10
22948;DHT22;11640;52.520;13.456;2023-05-07T16:19:41;18.70;96.30
22948;DHT22;11640;52.520;13.456;2023-05-07T16:24:43;18.40;96.80
22948;DHT22;11640;52.520;13.456;2023-05-07T16:29:45;18.20;96.90
22948;DHT22;11640;52.520;13.456;2023-05-07T16:34:47;17.90;96.80
22948;DHT22;11640;52.520;13.456;2023-05-07T16:39:49;17.70;96.80
22948;DHT22;11640;52.520;13.456;2023-05-07T16:44:51;17.60;97.20
22948;DHT22;11640;52.520;13.456;2023-05-07T16:49:53;17.40;98.10
22948;DHT22;11640;52.520;13.456;2023-05-07T16:54:57;17.10;98.90
22948;DHT22;11640;52.520;13.456;2023-05-07T17:00:01;16.80;99.80
22948;DHT22;11640;52.520;13.456;2023-05-07T17:05:08;16.60;99.90
22948;DHT22;11640;52.520;13.456;2023-05-07T17:10:10;15.90;99.90
22948;DHT22;11640;52.520;13.456;2023-05-07T17:15:11;15.90;99.90
22948;DHT22;11640;52.520;13.456;2023-05-07T17:20:14;15.60;99.90
22948;DHT22;11640;52.520;13.456;2023-05-07T17:25:16;15.20;99.90
22948;DHT22;11640;52.520;13.456;2023-05-07T17:30:18;15.50;99.90
22948;DHT22;11640;52.520;13.456;2023-05-07T17:35:19;15.60;99.90
22948;DHT22;11640;52.520;13.456;2023-05-07T17:40:21;15.40;99.90
22948;DHT22;11640;52.520;13.456;2023-05-07T17:45:23;15.30;99.90
22948;DHT22;11640;52.520;13.456;2023-05-07T17:50:25;15.20;99.90
22948;DHT22;11640;52.520;13.456;2023-05-07T17:55:27;15.00;99.90
22948;DHT22;11640;52.520;13.456;2023-05-07T18:00:29;14.80;99.90
22948;DHT22;11640;52.520;13.456;2023-05-07T18:05:30;14.70;99.90
22948;DHT22;11640;52.520;13.456;2023-05-07T18:10:32;14.70;99.90
22948;DHT22;11640;52.520;13.456;2023-05-07T18:15:34;14.60;99.90
22948;DHT22;11640;52.520;13.456;2023-05-07T18:20:36;14.50;99.90
22948;DHT22;11640;52.520;13.456;2023-05-07T18:25:38;14.50;99.90
22948;DHT22;11640;52.520;13.456;2023-05-07T18:30:40;14.40;99.90
22948;DHT22;11640;52.520;13.456;2023-05-07T18:35:41;14.30;99.90
22948;DHT22;11640;52.520;13.456;2023-05-07T18:40:43;13.90;99.90
22948;DHT22;11640;52.520;13.456;2023-05-07T18:45:48;14.00;99.90
22948;DHT22;11640;52.520;13.456;2023-05-07T18:50:50;14.10;99.90
22948;DHT22;11640;52.520;13.456;2023-05-07T18:55:52;14.00;99.90
22948;DHT22;11640;52.520;13.456;2023-05-07T19:00:54;13.80;99.90
22948;DHT22;11640;52.520;13.456;2023-05-07T19:05:56;13.70;99.90
22948;DHT22;11640;52.520;13.456;2023-05-07T19:10:58;13.50;99.90
22948;DHT22;11640;52.520;13.456;2023-05-07T19:15:59;13.40;99.90
22948;DHT22;11640;52.520;13.456;2023-05-07T19:21:01;13.20;99.90
22948;DHT22;11640;52.520;13.456;2023-05-07T19:26:03;13.20;99.90
22948;DHT22;11640;52.520;13.456;2023-05-07T19:31:05;13.10;99.90
22948;DHT22;11640;52.520;13.456;2023-05-07T19:36:07;13.10;99.90
22948;DHT22;11640;52.520;13.456;2023-05-07T19:41:09;13.00;99.90
22948;DHT22;11640;52.520;13.456;2023-05-07T19:46:12;12.90;99.90
22948;DHT22;11640;52.520;13.456;2023-05-07T19:51:14;12.70;99.90
22948;DHT22;11640;52.520;13.456;2023-05-07T19:56:16;12.60;99.90
22948;DHT22;11640;52.520;13.456;2023-05-07T20:01:18;12.50;99.90
22948;DHT22;11640;52.520;13.456;2023-05-07T20:06:20;12.40;99.90
22948;DHT22;11640;52.520;13.456;2023-05-07T20:11:23;12.20;99.90
22948;DHT22;11640;52.520;13.456;2023-05-07T20:16:25;12.10;99.90
22948;DHT22;11640;52.520;13.456;2023-05-07T20:21:27;12.00;99.90
22948;DHT22;11640;52.520;13.456;2023-05-07T20:26:29;11.90;99.90
22948;DHT22;11640;52.520;13.456;2023-05-07T20:31:31;11.80;99.90
22948;DHT22;11640;52.520;13.456;2023-05-07T20:36:35;11.70;99.90
22948;DHT22;11640;52.520;13.456;2023-05-07T20:41:38;11.60;99.90
22948;DHT22;11640;52.520;13.456;2023-05-07T20:46:39;11.40;99.90
22948;DHT22;11640;52.520;13.456;2023-05-07T20:51:41;11.30;99.90
22948;DHT22;11640;52.520;13.456;2023-05-07T20:56:43;11.20;99.90
22948;DHT22;11640;52.520;13.456;2023-05-07T21:01:45;11.10;99.90
22948;DHT22;11640;52.520;13.456;2023-05-07T21:06:47;11.00;99.90
22948;DHT22;11640;52.520;13.456;2023-05-07T21:11:49;10.90;99.90
22948;DHT22;11640;52.520;13.456;2023-05-07T21:16:51;10.90;99.90
22948;DHT22;11640;52.520;13.456;2023-05-07T21:21:53;10.80;99.90
22948;DHT22;11640;52.520;13.456;2023-05-07T21:26:59;10.70;99.90
22948;DHT22;11640;52.520;13.456;2023-05-07T21:32:01;10.60;99.90
22948;DHT22;11640;52.520;13.456;2023-05-07T21:37:04;10.50;99.90
22948;DHT22;11640;52.520;13.456;2023-05-07T21:42:06;10.50;99.90
22948;DHT22;11640;52.520;13.456;2023-05-07T21:47:08;10.40;99.90
22948;DHT22;11640;52.520;13.456;2023-05-07T21:52:11;10.30;99.90
22948;DHT22;11640;52.520;13.456;2023-05-07T21:57:13;10.20;99.90
22948;DHT22;11640;52.520;13.456;2023-05-07T22:02:14;10.20;99.90
22948;DHT22;11640;52.520;13.456;2023-05-07T22:14:04;10.00;99.90
22948;DHT22;11640;52.520;13.456;2023-05-07T22:19:06;9.90;99.90
22948;DHT22;11640;52.520;13.456;2023-05-07T22:24:07;9.80;99.90
22948;DHT22;11640;52.520;13.456;2023-05-07T22:29:09;9.70;99.90
22948;DHT22;11640;52.520;13.456;2023-05-07T22:34:11;9.70;99.90
22948;DHT22;11640;52.520;13.456;2023-05-07T22:39:12;9.60;99.90
22948;DHT22;11640;52.520;13.456;2023-05-07T22:44:14;9.60;99.90
22948;DHT22;11640;52.520;13.456;2023-05-07T22:49:16;9.50;99.90
22948;DHT22;11640;52.520;13.456;2023-05-07T22:54:18;9.50;99.90
22948;DHT22;11640;52.520;13.456;2023-05-07T22:59:20;9.30;99.90
22948;DHT22;11640;52.520;13.456;2023-05-07T23:04:22;9.30;99.90
22948;DHT22;11640;52.520;13.456;2023-05-07T23:09:23;9.30;99.90
22948;DHT22;11640;52.520;13.456;2023-05-07T23:14:25;9.20;99.90
22948;DHT22;11640;52.520;13.456;2023-05-07T23:19:27;9.10;99.90
22948;DHT22;11640;52.520;13.456;2023-05-07T23:24:29;9.10;99.90
22948;DHT22;11640;52.520;13.456;2023-05-07T23:29:31;9.00;99.90
22948;DHT22;11640;52.520;13.456;2023-05-07T23:34:33;9.00;99.90
22948;DHT22;11640;52.520;13.456;2023-05-07T23:39:35;8.90;99.90
22948;DHT22;11640;52.520;13.456;2023-05-07T23:44:36;8.80;99.90
22948;DHT22;11640;52.520;13.456;2023-05-07T23:49:38;8.70;99.90
22948;DHT22;11640;52.520;13.456;2023-05-07T23:54:40;8.70;99.90
22948;DHT22;11640;52.520;13.456;2023-05-07T23:59:42;8.60;99.90
